sensor_id;sensor_type;location;lat;lon;timestamp;temperature;humidity
51007;DHT22;37034;47.886;-3.904;2022-12-17T00:01:14;5.90;88.40
51007;DHT22;37034;47.886;-3.904;2022-12-17T00:03:59;5.80;88.30
51007;DHT22;37034;47.886;-3.904;2022-12-17T00:06:43;5.80;88.80
51007;DHT22;37034;47.886;-3.904;2022-12-17T00:09:27;5.80;88.60
51007;DHT22;37034;47.886;-3.904;2022-12-17T00:12:11;5.90;88.50
51007;DHT22;37034;47.886;-3.904;2022-12-17T00:14:55;5.90;88.70
51007;DHT22;37034;47.886;-3.904;2022-12-17T00:17:39;5.80;88.50
51007;DHT22;37034;47.886;-3.904;2022-12-17T00:20:23;5.80;88.90
51007;DHT22;37034;47.886;-3.904;2022-12-17T00:23:08;5.80;88.70
51007;DHT22;37034;47.886;-3.904;2022-12-17T00:25:53;5.80;88.70
51007;DHT22;37034;47.886;-3.904;2022-12-17T00:28:38;5.90;88.90
51007;DHT22;37034;47.886;-3.904;2022-12-17T00:31:25;5.90;89.00
51007;DHT22;37034;47.886;-3.904;2022-12-17T00:34:09;6.00;89.00
51007;DHT22;37034;47.886;-3.904;2022-12-17T00:36:53;6.00;89.00
51007;DHT22;37034;47.886;-3.904;2022-12-17T00:39:37;6.00;89.00
51007;DHT22;37034;47.886;-3.904;2022-12-17T00:42:21;6.00;89.00
51007;DHT22;37034;47.886;-3.904;2022-12-17T00:45:06;6.10;88.70
51007;DHT22;37034;47.886;-3.904;2022-12-17T00:47:50;6.20;88.70
51007;DHT22;37034;47.886;-3.904;2022-12-17T00:50:34;6.20;88.50
51007;DHT22;37034;47.886;-3.904;2022-12-17T00:53:18;6.10;88.30
51007;DHT22;37034;47.886;-3.904;2022-12-17T00:56:02;6.10;88.40
51007;DHT22;37034;47.886;-3.904;2022-12-17T00:58:46;6.10;88.50
51007;DHT22;37034;47.886;-3.904;2022-12-17T01:01:31;6.10;88.60
51007;DHT22;37034;47.886;-3.904;2022-12-17T01:04:15;6.10;88.50
51007;DHT22;37034;47.886;-3.904;2022-12-17T01:06:59;6.10;88.60
51007;DHT22;37034;47.886;-3.904;2022-12-17T01:09:43;6.10;88.60
51007;DHT22;37034;47.886;-3.904;2022-12-17T01:12:27;6.10;88.70
51007;DHT22;37034;47.886;-3.904;2022-12-17T01:15:11;6.10;88.50
51007;DHT22;37034;47.886;-3.904;2022-12-17T01:17:56;6.20;88.50
51007;DHT22;37034;47.886;-3.904;2022-12-17T01:20:40;6.20;88.50
51007;DHT22;37034;47.886;-3.904;2022-12-17T01:23:24;6.10;88.30
51007;DHT22;37034;47.886;-3.904;2022-12-17T01:26:08;6.10;88.20
51007;DHT22;37034;47.886;-3.904;2022-12-17T01:28:52;6.10;88.00
51007;DHT22;37034;47.886;-3.904;2022-12-17T01:31:36;6.00;88.00
51007;DHT22;37034;47.886;-3.904;2022-12-17T01:34:20;6.00;88.00
51007;DHT22;37034;47.886;-3.904;2022-12-17T01:37:04;5.90;88.20
51007;DHT22;37034;47.886;-3.904;2022-12-17T01:39:48;5.90;88.30
51007;DHT22;37034;47.886;-3.904;2022-12-17T01:42:41;5.90;88.50
51007;DHT22;37034;47.886;-3.904;2022-12-17T01:45:39;5.80;88.60
51007;DHT22;37034;47.886;-3.904;2022-12-17T01:48:27;5.80;88.70
51007;DHT22;37034;47.886;-3.904;2022-12-17T01:51:13;5.90;89.10
51007;DHT22;37034;47.886;-3.904;2022-12-17T01:53:59;6.00;88.80
51007;DHT22;37034;47.886;-3.904;2022-12-17T01:56:44;6.00;88.80
51007;DHT22;37034;47.886;-3.904;2022-12-17T02:02:25;5.90;88.50
51007;DHT22;37034;47.886;-3.904;2022-12-17T02:05:10;5.90;88.60
51007;DHT22;37034;47.886;-3.904;2022-12-17T02:11:02;5.90;88.50
51007;DHT22;37034;47.886;-3.904;2022-12-17T02:17:12;5.80;88.70
51007;DHT22;37034;47.886;-3.904;2022-12-17T02:20:08;5.80;88.60
51007;DHT22;37034;47.886;-3.904;2022-12-17T02:28:51;5.90;88.50
51007;DHT22;37034;47.886;-3.904;2022-12-17T02:31:38;5.80;88.50
51007;DHT22;37034;47.886;-3.904;2022-12-17T02:34:22;5.90;88.70
51007;DHT22;37034;47.886;-3.904;2022-12-17T02:37:06;5.90;88.60
51007;DHT22;37034;47.886;-3.904;2022-12-17T02:39:50;5.90;88.40
51007;DHT22;37034;47.886;-3.904;2022-12-17T02:42:35;5.90;88.20
51007;DHT22;37034;47.886;-3.904;2022-12-17T02:45:39;5.90;88.10
51007;DHT22;37034;47.886;-3.904;2022-12-17T02:48:24;5.80;88.00
51007;DHT22;37034;47.886;-3.904;2022-12-17T02:51:09;5.80;88.10
51007;DHT22;37034;47.886;-3.904;2022-12-17T02:53:53;5.80;88.00
51007;DHT22;37034;47.886;-3.904;2022-12-17T02:56:37;5.80;88.00
51007;DHT22;37034;47.886;-3.904;2022-12-17T02:59:21;5.80;87.70
51007;DHT22;37034;47.886;-3.904;2022-12-17T03:02:06;5.70;87.50
51007;DHT22;37034;47.886;-3.904;2022-12-17T03:04:50;5.70;87.80
51007;DHT22;37034;47.886;-3.904;2022-12-17T03:07:34;5.60;87.90
51007;DHT22;37034;47.886;-3.904;2022-12-17T03:10:18;5.60;87.80
51007;DHT22;37034;47.886;-3.904;2022-12-17T03:13:03;5.60;87.90
51007;DHT22;37034;47.886;-3.904;2022-12-17T03:15:47;5.60;87.70
51007;DHT22;37034;47.886;-3.904;2022-12-17T03:18:31;5.60;87.90
51007;DHT22;37034;47.886;-3.904;2022-12-17T03:21:15;5.60;87.70
51007;DHT22;37034;47.886;-3.904;2022-12-17T03:23:59;5.50;87.70
51007;DHT22;37034;47.886;-3.904;2022-12-17T03:26:43;5.50;87.50
51007;DHT22;37034;47.886;-3.904;2022-12-17T03:29:27;5.50;87.70
51007;DHT22;37034;47.886;-3.904;2022-12-17T03:32:11;5.40;87.50
51007;DHT22;37034;47.886;-3.904;2022-12-17T03:34:55;5.40;87.40
51007;DHT22;37034;47.886;-3.904;2022-12-17T03:37:39;5.40;87.30
51007;DHT22;37034;47.886;-3.904;2022-12-17T03:40:23;5.30;87.40
51007;DHT22;37034;47.886;-3.904;2022-12-17T03:43:08;5.20;87.40
51007;DHT22;37034;47.886;-3.904;2022-12-17T03:45:53;5.20;87.40
51007;DHT22;37034;47.886;-3.904;2022-12-17T03:48:38;5.10;87.30
51007;DHT22;37034;47.886;-3.904;2022-12-17T03:51:22;5.10;87.30
51007;DHT22;37034;47.886;-3.904;2022-12-17T03:54:06;5.00;87.60
51007;DHT22;37034;47.886;-3.904;2022-12-17T03:56:51;5.00;87.60
51007;DHT22;37034;47.886;-3.904;2022-12-17T03:59:35;4.90;87.70
51007;DHT22;37034;47.886;-3.904;2022-12-17T04:02:19;4.90;88.00
51007;DHT22;37034;47.886;-3.904;2022-12-17T04:05:04;4.80;87.90
51007;DHT22;37034;47.886;-3.904;2022-12-17T04:07:48;4.90;88.00
51007;DHT22;37034;47.886;-3.904;2022-12-17T04:10:32;4.90;88.30
51007;DHT22;37034;47.886;-3.904;2022-12-17T04:13:16;4.90;88.20
51007;DHT22;37034;47.886;-3.904;2022-12-17T04:16:00;4.90;87.70
51007;DHT22;37034;47.886;-3.904;2022-12-17T04:18:44;4.90;87.90
51007;DHT22;37034;47.886;-3.904;2022-12-17T04:21:28;4.90;87.70
51007;DHT22;37034;47.886;-3.904;2022-12-17T04:24:13;4.80;87.60
51007;DHT22;37034;47.886;-3.904;2022-12-17T04:26:57;4.80;87.60
51007;DHT22;37034;47.886;-3.904;2022-12-17T04:29:41;4.80;87.60
51007;DHT22;37034;47.886;-3.904;2022-12-17T04:32:25;4.70;87.70
51007;DHT22;37034;47.886;-3.904;2022-12-17T04:35:09;4.70;87.90
51007;DHT22;37034;47.886;-3.904;2022-12-17T04:37:53;4.70;88.10
51007;DHT22;37034;47.886;-3.904;2022-12-17T04:40:37;4.70;87.80
51007;DHT22;37034;47.886;-3.904;2022-12-17T04:43:21;4.50;88.20
51007;DHT22;37034;47.886;-3.904;2022-12-17T04:46:19;4.50;88.40
51007;DHT22;37034;47.886;-3.904;2022-12-17T04:49:03;4.60;88.40
51007;DHT22;37034;47.886;-3.904;2022-12-17T04:51:47;4.60;88.30
51007;DHT22;37034;47.886;-3.904;2022-12-17T04:54:31;4.50;88.20
51007;DHT22;37034;47.886;-3.904;2022-12-17T04:57:15;4.50;88.60
51007;DHT22;37034;47.886;-3.904;2022-12-17T04:59:59;4.50;88.50
51007;DHT22;37034;47.886;-3.904;2022-12-17T05:02:43;4.50;88.50
51007;DHT22;37034;47.886;-3.904;2022-12-17T05:05:27;4.40;88.60
51007;DHT22;37034;47.886;-3.904;2022-12-17T05:08:11;4.40;88.50
51007;DHT22;37034;47.886;-3.904;2022-12-17T05:11:01;4.40;88.40
51007;DHT22;37034;47.886;-3.904;2022-12-17T05:13:46;4.30;88.70
51007;DHT22;37034;47.886;-3.904;2022-12-17T05:16:30;4.40;88.80
51007;DHT22;37034;47.886;-3.904;2022-12-17T05:19:14;4.40;88.80
51007;DHT22;37034;47.886;-3.904;2022-12-17T05:21:58;4.40;88.70
51007;DHT22;37034;47.886;-3.904;2022-12-17T05:24:42;4.40;88.60
51007;DHT22;37034;47.886;-3.904;2022-12-17T05:27:26;4.40;88.70
51007;DHT22;37034;47.886;-3.904;2022-12-17T05:30:10;4.40;88.60
51007;DHT22;37034;47.886;-3.904;2022-12-17T05:32:59;4.50;88.70
51007;DHT22;37034;47.886;-3.904;2022-12-17T05:35:43;4.50;88.40
51007;DHT22;37034;47.886;-3.904;2022-12-17T05:38:27;4.50;88.50
51007;DHT22;37034;47.886;-3.904;2022-12-17T05:41:11;4.50;88.70
51007;DHT22;37034;47.886;-3.904;2022-12-17T05:43:55;4.50;88.70
51007;DHT22;37034;47.886;-3.904;2022-12-17T05:46:39;4.60;88.30
51007;DHT22;37034;47.886;-3.904;2022-12-17T05:49:23;4.60;88.20
51007;DHT22;37034;47.886;-3.904;2022-12-17T05:52:07;4.60;88.20
51007;DHT22;37034;47.886;-3.904;2022-12-17T05:54:51;4.60;88.50
51007;DHT22;37034;47.886;-3.904;2022-12-17T05:57:35;4.60;88.10
51007;DHT22;37034;47.886;-3.904;2022-12-17T06:00:19;4.60;88.00
51007;DHT22;37034;47.886;-3.904;2022-12-17T06:03:04;4.50;87.70
51007;DHT22;37034;47.886;-3.904;2022-12-17T06:05:53;4.50;87.90
51007;DHT22;37034;47.886;-3.904;2022-12-17T06:08:38;4.50;87.70
51007;DHT22;37034;47.886;-3.904;2022-12-17T06:11:22;4.50;87.70
51007;DHT22;37034;47.886;-3.904;2022-12-17T06:14:06;4.40;87.90
51007;DHT22;37034;47.886;-3.904;2022-12-17T06:16:50;4.50;88.00
51007;DHT22;37034;47.886;-3.904;2022-12-17T06:19:35;4.40;87.80
51007;DHT22;37034;47.886;-3.904;2022-12-17T06:22:19;4.40;87.90
51007;DHT22;37034;47.886;-3.904;2022-12-17T06:25:03;4.40;87.80
51007;DHT22;37034;47.886;-3.904;2022-12-17T06:27:47;4.40;87.80
51007;DHT22;37034;47.886;-3.904;2022-12-17T06:30:31;4.40;87.90
51007;DHT22;37034;47.886;-3.904;2022-12-17T06:33:16;4.40;87.80
51007;DHT22;37034;47.886;-3.904;2022-12-17T06:36:00;4.40;87.80
51007;DHT22;37034;47.886;-3.904;2022-12-17T06:38:43;4.30;87.80
51007;DHT22;37034;47.886;-3.904;2022-12-17T06:41:28;4.30;87.90
51007;DHT22;37034;47.886;-3.904;2022-12-17T06:44:12;4.30;88.00
51007;DHT22;37034;47.886;-3.904;2022-12-17T06:46:56;4.30;88.00
51007;DHT22;37034;47.886;-3.904;2022-12-17T06:49:40;4.30;88.00
51007;DHT22;37034;47.886;-3.904;2022-12-17T06:52:24;4.30;87.60
51007;DHT22;37034;47.886;-3.904;2022-12-17T06:55:09;4.20;88.10
51007;DHT22;37034;47.886;-3.904;2022-12-17T06:57:57;4.20;87.90
51007;DHT22;37034;47.886;-3.904;2022-12-17T07:00:42;4.20;88.00
51007;DHT22;37034;47.886;-3.904;2022-12-17T07:03:26;4.20;87.90
51007;DHT22;37034;47.886;-3.904;2022-12-17T07:06:12;4.20;87.90
51007;DHT22;37034;47.886;-3.904;2022-12-17T07:08:56;4.20;87.90
51007;DHT22;37034;47.886;-3.904;2022-12-17T07:11:41;4.20;87.80
51007;DHT22;37034;47.886;-3.904;2022-12-17T07:14:25;4.10;87.90
51007;DHT22;37034;47.886;-3.904;2022-12-17T07:17:09;4.10;88.00
51007;DHT22;37034;47.886;-3.904;2022-12-17T07:19:53;4.10;88.10
51007;DHT22;37034;47.886;-3.904;2022-12-17T07:22:37;4.00;88.00
51007;DHT22;37034;47.886;-3.904;2022-12-17T07:25:22;4.10;88.20
51007;DHT22;37034;47.886;-3.904;2022-12-17T07:28:06;4.00;88.20
51007;DHT22;37034;47.886;-3.904;2022-12-17T07:30:50;4.00;88.30
51007;DHT22;37034;47.886;-3.904;2022-12-17T07:33:35;4.00;88.40
51007;DHT22;37034;47.886;-3.904;2022-12-17T07:36:19;4.10;88.40
51007;DHT22;37034;47.886;-3.904;2022-12-17T07:39:03;4.00;88.40
51007;DHT22;37034;47.886;-3.904;2022-12-17T07:41:47;4.10;88.40
51007;DHT22;37034;47.886;-3.904;2022-12-17T07:44:31;4.00;88.40
51007;DHT22;37034;47.886;-3.904;2022-12-17T07:47:15;4.00;88.30
51007;DHT22;37034;47.886;-3.904;2022-12-17T07:49:59;4.00;88.60
51007;DHT22;37034;47.886;-3.904;2022-12-17T07:52:43;3.90;88.70
51007;DHT22;37034;47.886;-3.904;2022-12-17T07:55:28;4.00;89.30
51007;DHT22;37034;47.886;-3.904;2022-12-17T07:58:12;3.90;88.90
51007;DHT22;37034;47.886;-3.904;2022-12-17T08:00:59;4.00;88.80
51007;DHT22;37034;47.886;-3.904;2022-12-17T08:03:44;4.00;88.60
51007;DHT22;37034;47.886;-3.904;2022-12-17T08:06:28;4.10;88.90
51007;DHT22;37034;47.886;-3.904;2022-12-17T08:09:12;4.20;88.70
51007;DHT22;37034;47.886;-3.904;2022-12-17T08:11:57;4.20;88.50
51007;DHT22;37034;47.886;-3.904;2022-12-17T08:14:41;4.10;88.50
51007;DHT22;37034;47.886;-3.904;2022-12-17T08:17:25;4.20;88.40
51007;DHT22;37034;47.886;-3.904;2022-12-17T08:20:09;4.20;88.60
51007;DHT22;37034;47.886;-3.904;2022-12-17T08:23:00;4.10;88.60
51007;DHT22;37034;47.886;-3.904;2022-12-17T08:25:44;4.20;88.90
51007;DHT22;37034;47.886;-3.904;2022-12-17T08:28:28;4.20;88.90
51007;DHT22;37034;47.886;-3.904;2022-12-17T08:31:13;4.10;88.60
51007;DHT22;37034;47.886;-3.904;2022-12-17T08:33:57;4.20;88.70
51007;DHT22;37034;47.886;-3.904;2022-12-17T08:36:41;4.20;88.80
51007;DHT22;37034;47.886;-3.904;2022-12-17T08:39:25;4.20;88.60
51007;DHT22;37034;47.886;-3.904;2022-12-17T08:42:10;4.20;89.10
51007;DHT22;37034;47.886;-3.904;2022-12-17T08:44:54;4.30;89.10
51007;DHT22;37034;47.886;-3.904;2022-12-17T08:47:38;4.40;89.00
51007;DHT22;37034;47.886;-3.904;2022-12-17T08:50:22;4.40;88.80
51007;DHT22;37034;47.886;-3.904;2022-12-17T08:53:06;4.40;88.80
51007;DHT22;37034;47.886;-3.904;2022-12-17T08:55:50;4.40;88.80
51007;DHT22;37034;47.886;-3.904;2022-12-17T08:58:34;4.50;88.80
51007;DHT22;37034;47.886;-3.904;2022-12-17T09:01:18;4.50;88.70
51007;DHT22;37034;47.886;-3.904;2022-12-17T09:04:10;4.60;88.60
51007;DHT22;37034;47.886;-3.904;2022-12-17T09:06:53;4.60;88.60
51007;DHT22;37034;47.886;-3.904;2022-12-17T09:09:38;4.60;88.60
51007;DHT22;37034;47.886;-3.904;2022-12-17T09:12:22;4.70;88.60
51007;DHT22;37034;47.886;-3.904;2022-12-17T09:15:06;4.70;88.70
51007;DHT22;37034;47.886;-3.904;2022-12-17T09:17:51;4.80;88.50
51007;DHT22;37034;47.886;-3.904;2022-12-17T09:20:35;4.80;88.20
51007;DHT22;37034;47.886;-3.904;2022-12-17T09:23:19;4.70;88.40
51007;DHT22;37034;47.886;-3.904;2022-12-17T09:26:03;4.70;88.30
51007;DHT22;37034;47.886;-3.904;2022-12-17T09:28:48;4.70;88.30
51007;DHT22;37034;47.886;-3.904;2022-12-17T09:31:32;4.70;88.40
51007;DHT22;37034;47.886;-3.904;2022-12-17T09:34:17;4.80;88.40
51007;DHT22;37034;47.886;-3.904;2022-12-17T09:37:02;4.80;88.30
51007;DHT22;37034;47.886;-3.904;2022-12-17T09:39:46;4.80;88.30
51007;DHT22;37034;47.886;-3.904;2022-12-17T09:46:02;4.80;88.50
51007;DHT22;37034;47.886;-3.904;2022-12-17T09:49:04;4.80;88.70
51007;DHT22;37034;47.886;-3.904;2022-12-17T09:51:48;4.90;88.50
51007;DHT22;37034;47.886;-3.904;2022-12-17T09:54:45;5.00;88.60
51007;DHT22;37034;47.886;-3.904;2022-12-17T09:57:34;5.10;88.80
51007;DHT22;37034;47.886;-3.904;2022-12-17T10:00:22;5.20;88.20
51007;DHT22;37034;47.886;-3.904;2022-12-17T10:03:15;5.00;87.90
51007;DHT22;37034;47.886;-3.904;2022-12-17T10:06:07;5.10;88.20
51007;DHT22;37034;47.886;-3.904;2022-12-17T10:08:57;5.10;88.10
51007;DHT22;37034;47.886;-3.904;2022-12-17T10:11:41;5.30;88.20
51007;DHT22;37034;47.886;-3.904;2022-12-17T10:14:26;5.30;88.10
51007;DHT22;37034;47.886;-3.904;2022-12-17T10:17:21;5.40;87.80
51007;DHT22;37034;47.886;-3.904;2022-12-17T10:20:27;5.50;87.80
51007;DHT22;37034;47.886;-3.904;2022-12-17T10:26:08;5.70;87.90
51007;DHT22;37034;47.886;-3.904;2022-12-17T10:29:01;5.70;87.10
51007;DHT22;37034;47.886;-3.904;2022-12-17T10:32:20;5.80;87.40
51007;DHT22;37034;47.886;-3.904;2022-12-17T10:35:21;5.90;86.70
51007;DHT22;37034;47.886;-3.904;2022-12-17T10:38:26;5.90;86.80
51007;DHT22;37034;47.886;-3.904;2022-12-17T10:41:39;5.90;86.70
51007;DHT22;37034;47.886;-3.904;2022-12-17T10:44:29;6.10;86.60
51007;DHT22;37034;47.886;-3.904;2022-12-17T10:47:18;6.10;86.10
51007;DHT22;37034;47.886;-3.904;2022-12-17T10:50:09;6.20;86.50
51007;DHT22;37034;47.886;-3.904;2022-12-17T10:52:54;6.30;85.80
51007;DHT22;37034;47.886;-3.904;2022-12-17T10:58:33;6.40;85.50
51007;DHT22;37034;47.886;-3.904;2022-12-17T11:01:21;6.40;85.50
51007;DHT22;37034;47.886;-3.904;2022-12-17T11:04:31;6.40;85.10
51007;DHT22;37034;47.886;-3.904;2022-12-17T11:07:19;6.40;84.60
51007;DHT22;37034;47.886;-3.904;2022-12-17T11:10:05;6.30;84.10
51007;DHT22;37034;47.886;-3.904;2022-12-17T11:12:58;6.30;84.20
51007;DHT22;37034;47.886;-3.904;2022-12-17T11:15:49;6.40;85.00
51007;DHT22;37034;47.886;-3.904;2022-12-17T11:19:12;6.50;84.60
51007;DHT22;37034;47.886;-3.904;2022-12-17T11:28:22;6.30;83.50
51007;DHT22;37034;47.886;-3.904;2022-12-17T11:34:31;6.40;85.10
51007;DHT22;37034;47.886;-3.904;2022-12-17T11:37:25;6.50;84.50
51007;DHT22;37034;47.886;-3.904;2022-12-17T11:40:39;6.60;84.10
51007;DHT22;37034;47.886;-3.904;2022-12-17T11:43:42;6.70;84.20
51007;DHT22;37034;47.886;-3.904;2022-12-17T11:59:15;7.00;83.80
51007;DHT22;37034;47.886;-3.904;2022-12-17T12:17:54;7.10;83.20
51007;DHT22;37034;47.886;-3.904;2022-12-17T12:23:57;7.20;83.00
51007;DHT22;37034;47.886;-3.904;2022-12-17T12:27:07;7.20;83.40
51007;DHT22;37034;47.886;-3.904;2022-12-17T12:33:56;7.30;82.10
51007;DHT22;37034;47.886;-3.904;2022-12-17T12:36:42;7.40;82.60
51007;DHT22;37034;47.886;-3.904;2022-12-17T12:39:43;7.40;82.70
51007;DHT22;37034;47.886;-3.904;2022-12-17T12:45:29;7.40;82.70
51007;DHT22;37034;47.886;-3.904;2022-12-17T12:48:25;7.30;82.60
51007;DHT22;37034;47.886;-3.904;2022-12-17T12:51:27;7.40;82.70
51007;DHT22;37034;47.886;-3.904;2022-12-17T12:54:28;7.40;82.70
51007;DHT22;37034;47.886;-3.904;2022-12-17T13:00:34;7.40;82.60
51007;DHT22;37034;47.886;-3.904;2022-12-17T13:06:09;7.40;82.10
51007;DHT22;37034;47.886;-3.904;2022-12-17T13:08:35;7.50;82.60
51007;DHT22;37034;47.886;-3.904;2022-12-17T13:11:28;7.50;82.90
51007;DHT22;37034;47.886;-3.904;2022-12-17T13:13:59;7.60;81.60
51007;DHT22;37034;47.886;-3.904;2022-12-17T13:16:40;7.60;82.10
51007;DHT22;37034;47.886;-3.904;2022-12-17T13:22:47;7.60;81.70
51007;DHT22;37034;47.886;-3.904;2022-12-17T13:24:44;7.60;81.00
51007;DHT22;37034;47.886;-3.904;2022-12-17T13:29:55;7.60;81.00
51007;DHT22;37034;47.886;-3.904;2022-12-17T13:32:42;7.60;81.70
51007;DHT22;37034;47.886;-3.904;2022-12-17T13:35:46;7.60;81.70
51007;DHT22;37034;47.886;-3.904;2022-12-17T13:41:12;7.70;81.50
51007;DHT22;37034;47.886;-3.904;2022-12-17T13:43:48;7.70;80.70
51007;DHT22;37034;47.886;-3.904;2022-12-17T13:46:40;7.70;81.00
51007;DHT22;37034;47.886;-3.904;2022-12-17T13:49:25;7.70;80.60
51007;DHT22;37034;47.886;-3.904;2022-12-17T13:52:17;7.70;80.40
51007;DHT22;37034;47.886;-3.904;2022-12-17T13:54:43;7.70;80.70
51007;DHT22;37034;47.886;-3.904;2022-12-17T13:57:16;7.70;80.90
51007;DHT22;37034;47.886;-3.904;2022-12-17T13:59:57;7.70;80.20
51007;DHT22;37034;47.886;-3.904;2022-12-17T14:04:57;7.70;80.70
51007;DHT22;37034;47.886;-3.904;2022-12-17T14:07:25;7.60;80.10
51007;DHT22;37034;47.886;-3.904;2022-12-17T14:09:52;7.60;79.90
51007;DHT22;37034;47.886;-3.904;2022-12-17T14:12:21;7.50;79.60
51007;DHT22;37034;47.886;-3.904;2022-12-17T14:15:02;7.50;79.90
51007;DHT22;37034;47.886;-3.904;2022-12-17T14:17:44;7.50;79.40
51007;DHT22;37034;47.886;-3.904;2022-12-17T14:20:17;7.50;79.90
51007;DHT22;37034;47.886;-3.904;2022-12-17T14:22:46;7.50;80.40
51007;DHT22;37034;47.886;-3.904;2022-12-17T14:25:21;7.40;80.10
51007;DHT22;37034;47.886;-3.904;2022-12-17T14:27:53;7.40;80.20
51007;DHT22;37034;47.886;-3.904;2022-12-17T14:30:22;7.50;80.40
51007;DHT22;37034;47.886;-3.904;2022-12-17T14:32:47;7.50;80.00
51007;DHT22;37034;47.886;-3.904;2022-12-17T14:35:28;7.50;80.60
51007;DHT22;37034;47.886;-3.904;2022-12-17T14:37:54;7.50;79.90
51007;DHT22;37034;47.886;-3.904;2022-12-17T14:40:21;7.50;79.80
51007;DHT22;37034;47.886;-3.904;2022-12-17T14:42:48;7.50;80.30
51007;DHT22;37034;47.886;-3.904;2022-12-17T14:47:57;7.60;80.00
51007;DHT22;37034;47.886;-3.904;2022-12-17T14:50:33;7.50;79.60
51007;DHT22;37034;47.886;-3.904;2022-12-17T14:53:22;7.50;78.50
51007;DHT22;37034;47.886;-3.904;2022-12-17T14:55:57;7.50;78.70
51007;DHT22;37034;47.886;-3.904;2022-12-17T14:58:24;7.40;78.90
51007;DHT22;37034;47.886;-3.904;2022-12-17T15:01:11;7.40;79.60
51007;DHT22;37034;47.886;-3.904;2022-12-17T15:03:40;7.40;79.80
51007;DHT22;37034;47.886;-3.904;2022-12-17T15:06:08;7.40;80.00
51007;DHT22;37034;47.886;-3.904;2022-12-17T15:08:45;7.40;79.30
51007;DHT22;37034;47.886;-3.904;2022-12-17T15:11:14;7.30;79.40
51007;DHT22;37034;47.886;-3.904;2022-12-17T15:13:40;7.30;79.20
51007;DHT22;37034;47.886;-3.904;2022-12-17T15:16:06;7.30;79.20
51007;DHT22;37034;47.886;-3.904;2022-12-17T15:18:32;7.20;79.10
51007;DHT22;37034;47.886;-3.904;2022-12-17T15:20:58;7.20;79.30
51007;DHT22;37034;47.886;-3.904;2022-12-17T15:23:24;7.20;79.00
51007;DHT22;37034;47.886;-3.904;2022-12-17T15:25:51;7.10;79.10
51007;DHT22;37034;47.886;-3.904;2022-12-17T15:28:18;7.10;79.50
51007;DHT22;37034;47.886;-3.904;2022-12-17T15:30:45;7.10;79.00
51007;DHT22;37034;47.886;-3.904;2022-12-17T15:33:11;7.00;78.30
51007;DHT22;37034;47.886;-3.904;2022-12-17T15:35:38;7.00;78.60
51007;DHT22;37034;47.886;-3.904;2022-12-17T15:38:04;6.90;77.90
51007;DHT22;37034;47.886;-3.904;2022-12-17T15:40:31;6.80;78.50
51007;DHT22;37034;47.886;-3.904;2022-12-17T15:42:57;6.80;78.50
51007;DHT22;37034;47.886;-3.904;2022-12-17T15:45:39;6.70;78.30
51007;DHT22;37034;47.886;-3.904;2022-12-17T15:48:05;6.70;78.60
51007;DHT22;37034;47.886;-3.904;2022-12-17T15:50:31;6.60;78.50
51007;DHT22;37034;47.886;-3.904;2022-12-17T15:52:56;6.60;78.10
51007;DHT22;37034;47.886;-3.904;2022-12-17T15:55:22;6.60;78.00
51007;DHT22;37034;47.886;-3.904;2022-12-17T15:57:48;6.50;78.40
51007;DHT22;37034;47.886;-3.904;2022-12-17T16:00:14;6.60;78.40
51007;DHT22;37034;47.886;-3.904;2022-12-17T16:02:40;6.50;77.80
51007;DHT22;37034;47.886;-3.904;2022-12-17T16:05:06;6.50;78.30
51007;DHT22;37034;47.886;-3.904;2022-12-17T16:07:32;6.40;78.20
51007;DHT22;37034;47.886;-3.904;2022-12-17T16:09:58;6.40;77.80
51007;DHT22;37034;47.886;-3.904;2022-12-17T16:12:24;6.40;78.10
51007;DHT22;37034;47.886;-3.904;2022-12-17T16:14:50;6.40;78.10
51007;DHT22;37034;47.886;-3.904;2022-12-17T16:17:41;6.40;78.10
51007;DHT22;37034;47.886;-3.904;2022-12-17T16:20:07;6.30;78.00
51007;DHT22;37034;47.886;-3.904;2022-12-17T16:22:33;6.30;78.30
51007;DHT22;37034;47.886;-3.904;2022-12-17T16:24:59;6.40;78.30
51007;DHT22;37034;47.886;-3.904;2022-12-17T16:27:24;6.40;77.60
51007;DHT22;37034;47.886;-3.904;2022-12-17T16:29:50;6.30;78.20
51007;DHT22;37034;47.886;-3.904;2022-12-17T16:32:16;6.30;78.00
51007;DHT22;37034;47.886;-3.904;2022-12-17T16:34:42;6.30;77.90
51007;DHT22;37034;47.886;-3.904;2022-12-17T16:37:09;6.30;77.90
51007;DHT22;37034;47.886;-3.904;2022-12-17T16:39:35;6.30;78.00
51007;DHT22;37034;47.886;-3.904;2022-12-17T16:42:01;6.20;77.70
51007;DHT22;37034;47.886;-3.904;2022-12-17T16:44:26;6.20;77.90
51007;DHT22;37034;47.886;-3.904;2022-12-17T16:46:52;6.20;77.50
51007;DHT22;37034;47.886;-3.904;2022-12-17T16:49:20;6.20;77.90
51007;DHT22;37034;47.886;-3.904;2022-12-17T16:51:48;6.10;78.00
51007;DHT22;37034;47.886;-3.904;2022-12-17T16:54:17;6.10;78.10
51007;DHT22;37034;47.886;-3.904;2022-12-17T16:56:44;6.10;77.90
51007;DHT22;37034;47.886;-3.904;2022-12-17T16:59:10;6.10;77.70
51007;DHT22;37034;47.886;-3.904;2022-12-17T17:01:37;6.00;77.60
51007;DHT22;37034;47.886;-3.904;2022-12-17T17:04:04;5.90;77.90
51007;DHT22;37034;47.886;-3.904;2022-12-17T17:06:30;5.90;78.30
51007;DHT22;37034;47.886;-3.904;2022-12-17T17:08:56;5.90;78.80
51007;DHT22;37034;47.886;-3.904;2022-12-17T17:11:23;5.90;78.80
51007;DHT22;37034;47.886;-3.904;2022-12-17T17:13:52;5.80;78.90
51007;DHT22;37034;47.886;-3.904;2022-12-17T17:16:20;5.80;78.60
51007;DHT22;37034;47.886;-3.904;2022-12-17T17:18:47;5.80;78.50
51007;DHT22;37034;47.886;-3.904;2022-12-17T17:21:33;5.80;78.70
51007;DHT22;37034;47.886;-3.904;2022-12-17T17:24:01;5.80;78.70
51007;DHT22;37034;47.886;-3.904;2022-12-17T17:26:29;5.80;78.30
51007;DHT22;37034;47.886;-3.904;2022-12-17T17:28:56;5.70;78.40
51007;DHT22;37034;47.886;-3.904;2022-12-17T17:31:22;5.70;78.30
51007;DHT22;37034;47.886;-3.904;2022-12-17T17:33:49;5.70;78.30
51007;DHT22;37034;47.886;-3.904;2022-12-17T17:36:28;5.70;78.40
51007;DHT22;37034;47.886;-3.904;2022-12-17T17:38:55;5.70;78.60
51007;DHT22;37034;47.886;-3.904;2022-12-17T17:41:23;5.60;78.30
51007;DHT22;37034;47.886;-3.904;2022-12-17T17:44:05;5.60;78.40
51007;DHT22;37034;47.886;-3.904;2022-12-17T17:46:31;5.60;78.40
51007;DHT22;37034;47.886;-3.904;2022-12-17T17:48:58;5.60;78.40
51007;DHT22;37034;47.886;-3.904;2022-12-17T17:51:28;5.50;78.10
51007;DHT22;37034;47.886;-3.904;2022-12-17T17:53:55;5.50;78.70
51007;DHT22;37034;47.886;-3.904;2022-12-17T17:56:27;5.40;78.40
51007;DHT22;37034;47.886;-3.904;2022-12-17T17:59:04;5.40;78.60
51007;DHT22;37034;47.886;-3.904;2022-12-17T18:01:33;5.40;78.30
51007;DHT22;37034;47.886;-3.904;2022-12-17T18:04:00;5.40;78.30
51007;DHT22;37034;47.886;-3.904;2022-12-17T18:06:28;5.40;78.60
51007;DHT22;37034;47.886;-3.904;2022-12-17T18:08:58;5.40;78.80
51007;DHT22;37034;47.886;-3.904;2022-12-17T18:11:27;5.30;78.70
51007;DHT22;37034;47.886;-3.904;2022-12-17T18:13:54;5.30;78.80
51007;DHT22;37034;47.886;-3.904;2022-12-17T18:16:44;5.30;78.70
51007;DHT22;37034;47.886;-3.904;2022-12-17T18:19:12;5.30;78.60
51007;DHT22;37034;47.886;-3.904;2022-12-17T18:21:39;5.20;78.70
51007;DHT22;37034;47.886;-3.904;2022-12-17T18:24:18;5.20;78.70
51007;DHT22;37034;47.886;-3.904;2022-12-17T18:26:46;5.10;78.70
51007;DHT22;37034;47.886;-3.904;2022-12-17T18:29:16;5.10;78.90
51007;DHT22;37034;47.886;-3.904;2022-12-17T18:31:42;5.10;78.60